Terminal Aerodrome Forecast
Issued by NWS Sterling, VA

Home | Current Version | Previous Version | Text Only | Print | Product List | Glossary On
Versions: 1 2 3 4 5 6 7 8 9 10 11 12 13 14 15 16 17 18 19 20 21 22 23 24 25
000
FTUS41 KLWX 232343 AAA
TAFBWI
TAF AMD
KBWI 232343Z 2400/2506 09006KT P6SM SCT025 OVC030
     FM240200 08006KT P6SM SCT025 OVC030
     FM240700 03004KT P6SM BKN015 OVC025
     FM241200 03005KT P6SM SCT025 OVC040
     FM250100 11009KT P6SM SCT025 OVC035
     FM250300 10012KT P6SM -RA BKN010 OVC025=

USA.gov is the U.S. government's official web portal to all federal, state and local government web resources and services.